Moto2 – Starke Schweizer bei Quali in Misano

Moto2 – Starke Schweizer bei Quali in Misano

Bei der Qualifikation zum Moto2 WM-Rennen im italienischen Misano klassieren sich gleich 3 Schweizer in den Top10. Tom Lüthi startet als Dritter von der ersten Startreihe. In Reihe zwei, auf Position 5, geht Dominik Aegerter ins Rennen. Direkt dahinter startet Randy Krummenacher als Neunter. Robin Mulhauser konnte hingegen, als 35. die positiven Trainingsleistungen nicht bestätigen.

Heute gab zudem Newcomer Jesko Raffin bekannt, dass er im kommenden Jahr in die Moto2 WM aufsteigen wird.

Ergebnis Moto2 WM Misano / San Marino

1 36 M. Kallio Kalex 1:38.043 21
2 53 E. Rabat Kalex 1:38.110 0.067 26
3 12 T. Lüthi Suter 1:38.114 0.071 0.004 21
4 40 M. Vinales Kalex 1:38.202 0.159 0.088 22
5 77 D. Aegerter Suter 1:38.236 0.193 0.034 23
6 5 J. Zarco Caterham-Suter 1:38.413 0.370 0.177 19
7 88 R. Cardus Tech 3 1:38.499 0.456 0.086 22
8 30 T. Nakagami Kalex 1:38.506 0.463 0.007 22
9 4 R. Krummenacher Suter 1:38.522 0.479 0.016 20
10 49 A. Pons Kalex 1:38.626 0.583 0.104 22
11 23 M. Schrötter Tech 3 1:38.671 0.628 0.045 19
12 94 J. Folger Kalex 1:38.706 0.663 0.035 21
13 60 J. Simon Kalex 1:38.729 0.686 0.023 19
14 11 S. Cortese Kalex 1:38.784 0.741 0.055 18
15 39 L. Salom Kalex 1:38.865 0.822 0.081 21
16 18 N. Terol Suter 1:39.028 0.985 0.163 20
17 19 X. Simeon Suter 1:39.040 0.997 0.012 23
18 21 F. Morbidelli Kalex 1:39.081 1.038 0.041 20
19 7 L. Baldassarri Suter 1:39.148 1.105 0.067 19
20 81 J. Torres Suter 1:39.177 1.134 0.029 23
21 96 L. Rossi Kalex 1:39.235 1.192 0.058 22
22 54 M. Pasini Kalex 1:39.355 1.312 0.120 21
23 95 A. West Speed Up 1:39.510 1.467 0.155 23
24 22 S. Lowes Speed Up 1:39.598 1.555 0.088 19
25 55 H. Syahrin Kalex 1:39.670 1.627 0.072 18
26 20 F. Marino Kalex 1:39.746 1.703 0.076 19
27 25 A. Shah Kalex 1:39.832 1.789 0.086 23
28 8 G. Rea Suter 1:39.878 1.835 0.046 19
29 14 R. Wilairot Caterham-Suter 1:39.898 1.855 0.020 22
30 10 T. Warokorn Kalex 1:40.056 2.013 0.158 21
31 97 R. Ramos Speed Up 1:40.088 2.045 0.032 24
32 84 R. Russo Suter 1:40.096 2.053 0.008 19
33 32 F. Fuligni Suter 1:40.135 2.092 0.039 21
34 64 F. Caricasulo TSR 1:40.416 2.373 0.281 21
35 70 R. Mulhauser Suter 1:40.742 2.699 0.326 12
36 59 M. Popov Suter 1:40.865 2.822 0.123 20

【ライトハンドル】シマノ:メタニウムDC (15モデル)(右ハンドル) 【ベイトリール】
【ポイント20倍】ウォールナット : 北欧調シンプルワーキングデスク【noraces】 ブラウン(brown) (ナチュラル) (レトロモダン) つくえ 机 PC パソコン SOHO ライティング
【1500円以上購入で300円OFFクーポン 8/2 9:59まで】 【送料無料(沖縄・離島を除く)】 AMBIT3 SPORTS HR CORAL(アンビット3スポーツ HR コーラル) 日本正規品
(業務用50セット) 花王 キュキュット クリア除菌 詰替用 1380ml
大11号一対 大内行灯 銘木桜 絹二重絵入り【盆提灯】【八女提灯】【玉雲堂】
スマホエントリーでP10倍7/29(土)09:59迄【価格交渉応じます】 仏壇 家具調仏壇 モダン仏壇 【ピュア】 紫檀調 上置 12×13号
【運賃見積り】【直送品】サカエ SAKAE 物品棚KW型 KW1122-66
CES9313HL
水栓材料 カクダイ 2ハンドル混合栓 【Y2164H】【沖縄・北海道・離島は送料別途】
【XAI-3A-6014 W】富士工業 レンジフード 換気扇 シロッコファン 間口600mm 色:W

About author

ssp

Related Articles

Leave a reply

Your email address will not be published. Required fields are marked *